Fecha, hora, temperatura, viento dirección y velocidad, humedad y presión.

  • 11-04-2019 21:00:00 | 11.00°C | Norte |8.00 km/h | 75.00% | 978.10 hPa
  • 11-04-2019 20:00:00 | 13.50°C | Norte |7.00 km/h | 67.00% | 977.90 hPa
  • 11-04-2019 19:00:00 | 13.90°C | Norte |6.00 km/h | 67.00% | 977.90 hPa
  • 11-04-2019 18:00:00 | 14.90°C | Norte |8.00 km/h | 57.00% | 977.80 hPa
  • 11-04-2019 17:00:00 | 15.30°C | Este |5.00 km/h | 52.00% | 977.80 hPa
  • 11-04-2019 16:00:00 | 15.00°C | Sudeste |6.00 km/h | 52.00% | 978.20 hPa
  • 11-04-2019 15:00:00 | 14.40°C | Nordeste |4.00 km/h | 53.00% | 978.60 hPa
  • 11-04-2019 14:00:00 | 13.50°C | Este |6.00 km/h | 57.00% | 979.00 hPa
  • 11-04-2019 13:00:00 | 11.30°C | Norte |4.00 km/h | 80.00% | 979.40 hPa
  • 11-04-2019 12:00:00 | 8.10°C | Este |4.00 km/h | 100.00% | 979.50 hPa
  • 11-04-2019 11:00:00 | 5.00°C | Este |3.00 km/h | 100.00% | 979.30 hPa
  • 11-04-2019 10:00:00 | 4.60°C | Sur |6.00 km/h | 100.00% | 979.10 hPa
  • 11-04-2019 09:00:00 | 2.70°C | 0 |0.00 km/h | 100.00% | 979.00 hPa
  • 11-04-2019 08:00:00 | 2.70°C | Noroeste |2.00 km/h | 100.00% | 978.60 hPa
  • 11-04-2019 07:00:00 | 3.70°C | Oeste |5.00 km/h | 100.00% | 978.30 hPa
  • 11-04-2019 06:00:00 | 4.40°C | Noroeste |4.00 km/h | 100.00% | 978.40 hPa
  • 11-04-2019 05:00:00 | 5.40°C | Norte |4.00 km/h | 100.00% | 978.50 hPa
  • 11-04-2019 04:00:00 | 6.10°C | Este |2.00 km/h | 100.00% | 978.40 hPa
  • 11-04-2019 03:00:00 | 6.10°C | Norte |3.00 km/h | 100.00% | 978.50 hPa
  • 11-04-2019 02:00:00 | 6.30°C | Norte |2.00 km/h | 99.00% | 978.70 hPa
  • 11-04-2019 01:00:00 | 6.40°C | Calma |0.00 km/h | 98.00% | 978.70 hPa
  • 11-04-2019 00:00:00 | 6.90°C | Calma |0.00 km/h | 97.00% | 978.60 hPa
  • 10-04-2019 23:00:00 | 7.40°C | Norte |9.00 km/h | 94.00% | 978.60 hPa
  • 10-04-2019 22:00:00 | 8.50°C | Norte |13.00 km/h | 87.00% | 978.00 hPa
    • diseño web asturias Información sobre el estado de las mareas, altura de la marejada, temperatura del agua y otros datos de Gijón en Asturias.

      Surf Gijón